Time;durP1;ratioP1;P1;durP2;ratioP2;P2;SDS_P1;SDS_P2;PMS_P1;PMS_P2;Temp;Humidity;BMP_temperature;BMP_pressure;BME280_temperature;BME280_humidity;BME280_pressure;Samples;Min_cycle;Max_cycle;Signal;HPM_P1;HPM_P2
2022/05/31 00:01:54;;;;;;;9.63;9.13;;;9.90;16.70;;;;;;4990720;28;20487;-66
2022/05/31 00:04:20;;;;;;;9.40;9.00;;;9.90;16.20;;;;;;4992490;28;20212;-66
2022/05/31 00:06:46;;;;;;;9.87;9.37;;;9.90;16.00;;;;;;4991806;28;20437;-66
2022/05/31 00:09:13;;;;;;;9.27;8.87;;;10.00;15.30;;;;;;4992325;28;20207;-66
2022/05/31 00:11:41;;;;;;;9.53;9.03;;;10.10;14.80;;;;;;4991934;28;20534;-66
2022/05/31 00:14:07;;;;;;;10.30;9.70;;;10.00;14.90;;;;;;4991944;28;20533;-67
2022/05/31 00:16:33;;;;;;;9.70;9.30;;;10.10;14.80;;;;;;4992112;28;20522;-66
2022/05/31 00:18:58;;;;;;;9.43;8.97;;;10.10;14.90;;;;;;4991422;28;20525;-66
2022/05/31 00:21:38;;;;;;;8.90;8.60;;;9.90;16.00;;;;;;4991662;28;20650;-69
2022/05/31 00:24:09;;;;;;;9.87;9.47;;;10.00;15.10;;;;;;4991564;28;20242;-66
2022/05/31 00:26:37;;;;;;;10.10;9.40;;;10.10;14.80;;;;;;4992056;28;20482;-66
2022/05/31 00:29:03;;;;;;;9.03;8.37;;;10.10;14.80;;;;;;4992100;28;20987;-66
2022/05/31 00:31:28;;;;;;;10.00;9.10;;;9.90;16.20;;;;;;4991825;28;20482;-66
2022/05/31 00:33:54;;;;;;;9.40;8.80;;;10.00;15.30;;;;;;4991515;28;20213;-66
2022/05/31 00:36:20;;;;;;;8.70;8.30;;;10.10;15.20;;;;;;4985977;28;20192;-66
2022/05/31 00:38:46;;;;;;;8.93;8.33;;;10.00;15.40;;;;;;4992110;28;20186;-66
2022/05/31 00:41:26;;;;;;;8.70;8.40;;;9.90;16.60;;;;;;4991476;28;20424;-66
2022/05/31 00:44:02;;;;;;;9.03;8.43;;;10.00;15.70;;;;;;4991688;28;20208;-66
2022/05/31 00:46:40;;;;;;;9.00;8.60;;;9.90;16.70;;;;;;4996127;28;20804;-66
2022/05/31 00:49:09;;;;;;;8.10;7.60;;;9.80;17.10;;;;;;4994923;28;20442;-66
2022/05/31 00:51:42;;;;;;;8.33;7.80;;;9.70;17.60;;;;;;4995664;28;20463;-66
2022/05/31 00:54:11;;;;;;;8.83;8.43;;;9.70;17.40;;;;;;4995670;28;20477;-66
2022/05/31 00:56:37;;;;;;;7.90;7.50;;;9.80;17.40;;;;;;4996112;28;20489;-65
2022/05/31 00:59:10;;;;;;;8.60;7.80;;;9.70;18.10;;;;;;4995279;28;20421;-66
2022/05/31 01:01:39;;;;;;;8.00;7.30;;;9.60;17.80;;;;;;4995275;28;20177;-66
2022/05/31 01:04:05;;;;;;;7.90;7.50;;;9.40;18.10;;;;;;4995349;28;20461;-66
2022/05/31 01:06:36;;;;;;;7.53;7.13;;;9.50;18.00;;;;;;4994776;28;20439;-66
2022/05/31 01:09:02;;;;;;;7.90;7.40;;;9.60;19.40;;;;;;4995373;28;20442;-66
2022/05/31 01:11:31;;;;;;;6.80;6.50;;;9.60;17.90;;;;;;4995293;28;20847;-66
2022/05/31 01:13:57;;;;;;;6.40;6.10;;;9.40;18.70;;;;;;4994701;28;21026;-65
2022/05/31 01:16:23;;;;;;;6.73;6.33;;;9.30;18.90;;;;;;4995414;28;20438;-66
2022/05/31 01:18:49;;;;;;;6.80;6.40;;;9.40;18.70;;;;;;4994323;28;20549;-66
2022/05/31 01:21:15;;;;;;;7.13;6.70;;;9.40;19.30;;;;;;4993940;28;20427;-66
2022/05/31 01:23:46;;;;;;;6.77;6.37;;;9.30;19.50;;;;;;4994632;28;20455;-66
2022/05/31 01:26:40;;;;;;;6.90;6.50;;;9.20;19.90;;;;;;4994548;28;20650;-66
2022/05/31 01:29:26;;;;;;;5.97;5.67;;;9.00;20.50;;;;;;4994241;28;20431;-66
2022/05/31 01:32:04;;;;;;;6.80;6.30;;;9.00;20.50;;;;;;4994479;28;20797;-66
2022/05/31 01:34:52;;;;;;;6.00;5.60;;;8.90;21.30;;;;;;4994827;28;20479;-66
2022/05/31 01:37:25;;;;;;;6.97;6.57;;;8.90;21.10;;;;;;4994687;28;20429;-66
2022/05/31 01:40:01;;;;;;;6.93;6.23;;;8.90;21.10;;;;;;4994479;28;20420;-66
2022/05/31 01:42:36;;;;;;;6.90;6.40;;;8.80;21.20;;;;;;4994258;28;20786;-66
2022/05/31 01:45:22;;;;;;;6.30;5.70;;;8.80;21.50;;;;;;4994499;28;20481;-68
2022/05/31 01:47:48;;;;;;;5.53;5.03;;;8.70;21.70;;;;;;4988775;28;20456;-66
2022/05/31 01:50:17;;;;;;;5.87;5.40;;;8.70;21.90;;;;;;4993704;28;20899;-66
2022/05/31 01:52:43;;;;;;;7.10;6.50;;;8.60;22.50;;;;;;5008690;28;20519;-66
2022/05/31 01:55:10;;;;;;;5.90;5.23;;;8.60;22.40;;;;;;4994845;28;20534;-65
2022/05/31 01:57:37;;;;;;;4.97;4.67;;;8.40;22.90;;;;;;4993617;28;20428;-67
2022/05/31 02:00:08;;;;;;;5.20;4.70;;;8.60;22.40;;;;;;4994222;28;20430;-67
2022/05/31 02:02:34;;;;;;;5.77;5.27;;;8.60;23.00;;;;;;4993912;28;20423;-66
2022/05/31 02:04:59;;;;;;;6.80;5.43;;;8.60;23.00;;;;;;4993897;28;20969;-66
2022/05/31 02:07:26;;;;;;;5.30;4.80;;;8.50;23.40;;;;;;4993759;28;20677;-66
2022/05/31 02:09:53;;;;;;;5.50;5.10;;;8.40;23.90;;;;;;4994038;28;20184;-66
2022/05/31 02:12:20;;;;;;;5.67;5.17;;;8.50;23.10;;;;;;4993756;28;20442;-66
2022/05/31 02:14:46;;;;;;;5.00;4.60;;;8.60;22.80;;;;;;4993695;28;20482;-66
2022/05/31 02:17:12;;;;;;;5.70;5.30;;;8.60;23.00;;;;;;4993910;28;20427;-66
2022/05/31 02:19:38;;;;;;;5.10;4.70;;;8.60;23.30;;;;;;4992975;28;20424;-66
2022/05/31 02:22:07;;;;;;;6.40;5.87;;;8.60;23.30;;;;;;4993132;28;20439;-66
2022/05/31 02:24:33;;;;;;;6.37;5.97;;;8.60;22.40;;;;;;4993586;28;20792;-67
2022/05/31 02:27:00;;;;;;;6.70;6.20;;;8.70;22.50;;;;;;4993670;28;20460;-66
2022/05/31 02:29:32;;;;;;;5.33;4.93;;;8.60;22.40;;;;;;4993701;28;20817;-66
2022/05/31 02:31:59;;;;;;;5.70;5.30;;;8.70;22.50;;;;;;4993234;28;20847;-66
2022/05/31 02:34:28;;;;;;;5.83;5.20;;;8.60;22.40;;;;;;4993088;28;20468;-66
2022/05/31 02:36:54;;;;;;;4.87;4.60;;;8.50;22.40;;;;;;4993613;28;20480;-66
2022/05/31 02:39:20;;;;;;;5.63;5.13;;;8.50;23.10;;;;;;4993557;28;20427;-66
2022/05/31 02:41:46;;;;;;;5.00;4.60;;;8.40;23.40;;;;;;4993600;28;20423;-66
2022/05/31 02:44:11;;;;;;;4.60;4.27;;;8.30;23.50;;;;;;4993359;28;20215;-66
2022/05/31 02:46:37;;;;;;;5.87;5.43;;;8.30;23.60;;;;;;4993108;28;20486;-66
2022/05/31 02:49:04;;;;;;;4.80;4.50;;;8.40;23.80;;;;;;4992623;28;20231;-66
2022/05/31 02:51:37;;;;;;;5.27;4.97;;;8.30;23.70;;;;;;4982494;28;20438;-66
2022/05/31 02:54:04;;;;;;;6.60;5.30;;;8.20;23.90;;;;;;4992954;28;20888;-66
2022/05/31 02:56:30;;;;;;;5.73;5.23;;;8.20;24.30;;;;;;4993075;28;20475;-66
2022/05/31 02:58:56;;;;;;;5.03;4.37;;;8.20;24.30;;;;;;4993131;28;20470;-66
2022/05/31 03:01:28;;;;;;;12.40;4.20;;;8.10;25.10;;;;;;4992902;28;20687;-66
2022/05/31 03:03:53;;;;;;;4.60;4.23;;;7.90;25.90;;;;;;4993030;28;20952;-66
2022/05/31 03:06:20;;;;;;;5.07;4.57;;;7.90;26.00;;;;;;4992920;28;20441;-66
2022/05/31 03:08:47;;;;;;;4.87;4.00;;;7.80;26.10;;;;;;4992600;28;20486;-66
2022/05/31 03:11:30;;;;;;;4.50;4.10;;;7.70;26.40;;;;;;4992645;28;20438;-66
2022/05/31 03:14:01;;;;;;;4.80;4.40;;;7.80;26.10;;;;;;4993051;28;20214;-67
2022/05/31 03:16:27;;;;;;;4.43;4.10;;;7.80;26.10;;;;;;4992817;28;20433;-66
2022/05/31 03:19:02;;;;;;;4.93;4.40;;;7.90;25.70;;;;;;4991521;28;20424;-66
2022/05/31 03:21:35;;;;;;;5.50;5.10;;;7.80;25.90;;;;;;4988555;28;20481;-66
2022/05/31 03:24:07;;;;;;;4.95;4.55;;;7.70;26.20;;;;;;4992432;28;20852;-66
2022/05/31 03:26:36;;;;;;;6.00;4.80;;;7.60;26.50;;;;;;4992804;28;20257;-66
2022/05/31 03:29:03;;;;;;;6.17;5.63;;;7.60;26.80;;;;;;4992557;28;20435;-65
2022/05/31 03:31:29;;;;;;;4.80;4.40;;;7.50;26.70;;;;;;4992809;28;20772;-65
2022/05/31 03:33:55;;;;;;;5.30;4.80;;;7.50;27.30;;;;;;4992097;28;20991;-66
2022/05/31 03:36:21;;;;;;;4.47;4.10;;;7.40;27.40;;;;;;4992924;28;20435;-66
2022/05/31 03:38:46;;;;;;;6.03;5.53;;;7.50;26.50;;;;;;4992026;28;20274;-66
2022/05/31 03:41:12;;;;;;;8.83;4.53;;;7.60;26.70;;;;;;4992284;28;20539;-66
2022/05/31 03:43:37;;;;;;;5.00;4.43;;;7.60;26.50;;;;;;4992280;28;20249;-66
2022/05/31 03:46:03;;;;;;;6.03;5.40;;;7.50;26.50;;;;;;4991632;28;20222;-66
2022/05/31 03:48:28;;;;;;;5.10;4.63;;;7.60;26.20;;;;;;4991609;28;20180;-66
2022/05/31 03:51:08;;;;;;;5.33;4.90;;;7.60;26.00;;;;;;4992052;28;20470;-66
2022/05/31 03:53:34;;;;;;;4.87;4.40;;;7.60;25.60;;;;;;4991845;28;20261;-66
2022/05/31 03:56:11;;;;;;;5.00;4.60;;;7.50;25.30;;;;;;4991724;28;20430;-66
2022/05/31 03:58:37;;;;;;;4.63;4.23;;;7.50;25.40;;;;;;4992311;28;20462;-66
2022/05/31 04:01:03;;;;;;;5.17;4.67;;;7.40;25.80;;;;;;4991520;28;20426;-66
2022/05/31 04:03:29;;;;;;;4.93;4.43;;;7.40;25.80;;;;;;4991509;28;20451;-66
2022/05/31 04:05:54;;;;;;;5.37;4.40;;;7.40;26.10;;;;;;4991596;28;20477;-66
2022/05/31 04:08:20;;;;;;;4.40;4.10;;;7.60;25.90;;;;;;4992281;28;20194;-65
2022/05/31 04:10:47;;;;;;;5.00;4.50;;;7.60;25.90;;;;;;4991826;28;20182;-65
2022/05/31 04:13:14;;;;;;;4.63;4.30;;;7.60;25.90;;;;;;4991495;28;20868;-66
2022/05/31 04:15:40;;;;;;;4.20;3.90;;;7.80;25.00;;;;;;4990621;28;20435;-66
2022/05/31 04:18:06;;;;;;;5.27;4.83;;;7.90;24.70;;;;;;4991511;28;20423;-67
2022/05/31 04:20:33;;;;;;;5.33;5.03;;;8.10;24.30;;;;;;4994113;28;20187;-65
2022/05/31 04:25:43;;;;;;;5.80;5.27;;;8.30;23.60;;;;;;4996257;28;20570;-65
2022/05/31 04:28:09;;;;;;;6.13;5.63;;;8.40;23.30;;;;;;4995997;28;20514;-66
2022/05/31 04:30:36;;;;;;;5.80;5.40;;;8.30;23.30;;;;;;4996237;28;20435;-65
2022/05/31 04:33:01;;;;;;;5.13;4.73;;;8.50;23.10;;;;;;4995068;28;20838;-67
2022/05/31 04:35:27;;;;;;;6.10;5.50;;;8.40;22.60;;;;;;4996133;28;20420;-67
2022/05/31 04:37:52;;;;;;;6.80;6.20;;;8.60;22.40;;;;;;4995946;28;20278;-67
2022/05/31 04:40:18;;;;;;;10.03;7.33;;;8.90;22.60;;;;;;4995146;28;20191;-67
2022/05/31 04:42:44;;;;;;;6.67;6.27;;;8.90;22.40;;;;;;4995191;28;20216;-66
2022/05/31 04:45:10;;;;;;;6.10;5.80;;;8.90;21.90;;;;;;4995208;28;20187;-66
2022/05/31 04:47:35;;;;;;;7.73;6.90;;;9.10;21.60;;;;;;4994606;28;20428;-67
2022/05/31 04:50:01;;;;;;;7.23;6.77;;;9.30;21.10;;;;;;4995188;28;20552;-66
2022/05/31 04:52:27;;;;;;;7.93;7.10;;;9.50;21.00;;;;;;4995027;28;20208;-68
2022/05/31 04:54:54;;;;;;;8.03;7.63;;;10.00;20.20;;;;;;4994010;28;20474;-65
2022/05/31 04:57:19;;;;;;;10.37;9.77;;;11.50;18.70;;;;;;4995504;28;20522;-66
2022/05/31 04:59:45;;;;;;;12.67;12.07;;;13.20;16.10;;;;;;4995112;28;20416;-66
2022/05/31 05:02:11;;;;;;;12.40;11.70;;;14.70;12.80;;;;;;4994662;28;20183;-67
2022/05/31 05:04:37;;;;;;;14.20;12.93;;;15.30;10.60;;;;;;4994918;28;20210;-67
2022/05/31 05:07:03;;;;;;;13.43;12.83;;;16.10;10.40;;;;;;4995186;28;20791;-67
2022/05/31 05:09:28;;;;;;;14.13;13.40;;;17.50;7.20;;;;;;4994948;28;20180;-66
2022/05/31 05:11:54;;;;;;;14.97;14.20;;;18.80;6.40;;;;;;4994707;28;20260;-65
2022/05/31 05:14:19;;;;;;;15.03;14.13;;;19.00;5.10;;;;;;4994218;28;20319;-65
2022/05/31 05:16:45;;;;;;;15.97;15.17;;;18.40;5.20;;;;;;4994841;28;20267;-66
2022/05/31 05:19:12;;;;;;;14.20;13.50;;;17.90;5.00;;;;;;4993387;28;20584;-66
2022/05/31 05:21:38;;;;;;;14.50;13.60;;;17.60;5.10;;;;;;4994485;28;20459;-66
2022/05/31 05:24:04;;;;;;;14.90;14.10;;;17.30;5.70;;;;;;4994749;28;20522;-66
2022/05/31 05:26:29;;;;;;;13.50;12.90;;;16.60;5.20;;;;;;4994866;28;20661;-67
2022/05/31 05:31:40;;;;;;;14.57;13.73;;;18.20;6.30;;;;;;4986388;28;20771;-67
2022/05/31 05:34:07;;;;;;;14.87;14.10;;;19.80;3.40;;;;;;4994618;28;20526;-66
2022/05/31 05:36:33;;;;;;;14.50;13.90;;;20.80;2.60;;;;;;4994628;28;20420;-66
2022/05/31 05:38:59;;;;;;;15.80;14.90;;;21.10;1.00;;;;;;4994455;28;20497;-66
2022/05/31 05:41:27;;;;;;;14.00;13.30;;;20.70;1.00;;;;;;4994188;28;20857;-66
2022/05/31 05:43:52;;;;;;;13.80;13.10;;;20.00;1.50;;;;;;4994291;28;20690;-66
2022/05/31 05:46:21;;;;;;;14.90;14.00;;;19.40;1.70;;;;;;4994314;28;20480;-66
2022/05/31 05:48:47;;;;;;;13.80;13.20;;;18.60;2.50;;;;;;4993416;28;20659;-66
2022/05/31 05:51:22;;;;;;;14.23;13.63;;;17.80;3.40;;;;;;4993969;28;20518;-66
2022/05/31 05:53:47;;;;;;;14.20;13.50;;;17.20;4.20;;;;;;4986874;28;20211;-67
2022/05/31 05:56:14;;;;;;;12.60;12.07;;;17.00;5.10;;;;;;4991486;28;20435;-66
2022/05/31 05:58:41;;;;;;;14.73;13.90;;;17.00;5.50;;;;;;4986708;28;20268;-66
2022/05/31 06:01:11;;;;;;;14.53;13.63;;;17.30;5.70;;;;;;4987898;28;20941;-65
2022/05/31 06:03:41;;;;;;;16.40;15.40;;;16.90;5.70;;;;;;4993544;28;21039;-66
2022/05/31 06:06:09;;;;;;;14.73;13.93;;;17.00;5.80;;;;;;4984913;28;20461;-67
2022/05/31 06:09:00;;;;;;;15.27;13.90;;;17.30;5.70;;;;;;4988705;28;20442;-66
2022/05/31 06:11:36;;;;;;;13.90;13.13;;;17.40;5.80;;;;;;4987008;28;20510;-67
2022/05/31 06:14:15;;;;;;;13.70;12.90;;;17.40;5.80;;;;;;4993746;28;20525;-65
2022/05/31 06:16:48;;;;;;;13.13;12.40;;;17.40;5.80;;;;;;4992513;28;20435;-65
2022/05/31 06:19:17;;;;;;;12.90;12.40;;;16.70;5.30;;;;;;4993556;28;20436;-65
2022/05/31 06:21:44;;;;;;;12.87;12.20;;;16.00;7.70;;;;;;4993220;28;20462;-66
2022/05/31 06:24:10;;;;;;;13.20;12.60;;;16.80;7.40;;;;;;4993770;28;20452;-65
2022/05/31 06:26:36;;;;;;;12.70;12.20;;;16.90;6.20;;;;;;4992993;28;20922;-66
2022/05/31 06:29:03;;;;;;;13.47;12.37;;;17.50;5.90;;;;;;4992927;28;20463;-66
2022/05/31 06:31:29;;;;;;;14.07;13.37;;;18.80;5.10;;;;;;4991908;28;20258;-67
2022/05/31 06:33:54;;;;;;;13.00;12.40;;;19.80;3.20;;;;;;4993260;28;20996;-66
2022/05/31 06:36:20;;;;;;;13.67;12.97;;;19.30;2.70;;;;;;4992821;28;20938;-66
2022/05/31 06:38:46;;;;;;;49.30;20.50;;;19.30;2.70;;;;;;4992535;28;20235;-66
2022/05/31 06:41:12;;;;;;;13.57;12.67;;;19.70;3.60;;;;;;4993159;28;20185;-65
2022/05/31 06:43:38;;;;;;;13.77;12.90;;;20.40;2.60;;;;;;4992586;28;20201;-66
2022/05/31 06:46:05;;;;;;;14.20;13.60;;;20.80;1.70;;;;;;4993389;28;20431;-67
2022/05/31 06:48:31;;;;;;;13.20;12.60;;;21.20;1.80;;;;;;4991916;28;20189;-66
2022/05/31 06:50:56;;;;;;;13.43;12.73;;;21.30;1.00;;;;;;4993138;28;20427;-67
2022/05/31 06:58:50;;;;;;;13.40;12.80;;;21.70;1.00;;;;;;4991176;28;20434;-66
2022/05/31 07:01:16;;;;;;;13.60;13.00;;;22.10;1.00;;;;;;4991834;28;20420;-65
2022/05/31 07:03:41;;;;;;;13.23;12.73;;;22.20;1.00;;;;;;4987686;28;20232;-67
2022/05/31 07:06:07;;;;;;;16.20;13.20;;;22.00;1.00;;;;;;4992933;28;20187;-66
2022/05/31 07:08:32;;;;;;;13.77;13.07;;;22.00;1.00;;;;;;4993102;28;20189;-67
2022/05/31 07:10:59;;;;;;;13.60;12.90;;;21.90;1.00;;;;;;4991487;28;20184;-67
2022/05/31 07:13:25;;;;;;;13.20;12.70;;;22.20;1.00;;;;;;4985637;28;20577;-67
2022/05/31 07:15:52;;;;;;;14.57;13.97;;;22.70;1.00;;;;;;4992741;28;20432;-67
2022/05/31 07:18:19;;;;;;;14.57;13.87;;;23.50;1.00;;;;;;4992878;28;20173;-66
2022/05/31 07:20:44;;;;;;;14.20;13.50;;;23.50;1.00;;;;;;4992369;28;20897;-65
2022/05/31 07:23:11;;;;;;;14.10;13.60;;;24.20;1.00;;;;;;4992830;28;20472;-66
2022/05/31 07:25:36;;;;;;;13.47;12.97;;;24.80;1.00;;;;;;4993428;28;20276;-67
2022/05/31 07:28:02;;;;;;;13.67;13.07;;;25.80;1.00;;;;;;4992332;28;20571;-72
2022/05/31 07:30:28;;;;;;;13.63;12.90;;;26.00;1.00;;;;;;4991512;28;20185;-68
2022/05/31 07:32:53;;;;;;;15.13;14.17;;;26.60;1.00;;;;;;4992060;28;20670;-70
2022/05/31 07:35:19;;;;;;;15.70;15.00;;;27.30;1.00;;;;;;4988262;28;20184;-67
2022/05/31 07:37:45;;;;;;;15.53;14.73;;;27.00;1.00;;;;;;4988830;28;20791;-69
2022/05/31 07:40:11;;;;;;;16.83;15.37;;;26.90;1.00;;;;;;4988462;28;20608;-69
2022/05/31 07:42:37;;;;;;;13.93;13.30;;;27.10;1.00;;;;;;4985863;28;20435;-71
2022/05/31 07:45:03;;;;;;;13.67;12.93;;;26.90;1.00;;;;;;4992552;28;20258;-69
2022/05/31 07:47:29;;;;;;;15.23;14.30;;;26.90;1.00;;;;;;4991386;28;20471;-70
2022/05/31 07:49:56;;;;;;;14.87;14.17;;;27.50;1.00;;;;;;4989524;28;20606;-70
2022/05/31 07:52:22;;;;;;;15.73;14.93;;;27.70;1.00;;;;;;4992042;28;20435;-69
2022/05/31 07:54:48;;;;;;;15.70;15.00;;;27.60;1.00;;;;;;4991761;28;20558;-67
2022/05/31 07:59:58;;;;;;;15.03;14.53;;;27.70;1.00;;;;;;4984952;28;20262;-67
2022/05/31 08:02:24;;;;;;;13.83;13.27;;;28.50;1.00;;;;;;4991160;28;20431;-68
2022/05/31 08:04:49;;;;;;;14.60;13.90;;;29.30;1.00;;;;;;4992408;28;20208;-68
2022/05/31 08:07:15;;;;;;;14.03;13.43;;;29.70;1.00;;;;;;4992716;28;20188;-74
2022/05/31 08:09:40;;;;;;;14.47;13.87;;;29.30;1.00;;;;;;4991751;28;20219;-69
2022/05/31 08:12:10;;;;;;;18.53;14.27;;;29.10;1.00;;;;;;4991374;28;20196;-69
2022/05/31 08:14:36;;;;;;;14.40;13.80;;;29.30;1.00;;;;;;4982600;28;20216;-69
2022/05/31 08:17:03;;;;;;;15.13;14.33;;;29.60;1.00;;;;;;4991625;28;20442;-69
2022/05/31 08:19:29;;;;;;;14.77;14.17;;;29.90;1.00;;;;;;4983536;28;20188;-69
2022/05/31 08:21:56;;;;;;;14.00;13.50;;;30.10;1.00;;;;;;4991497;28;20423;-69
2022/05/31 08:24:22;;;;;;;14.40;13.70;;;30.20;1.00;;;;;;4991482;28;20460;-69
2022/05/31 08:26:48;;;;;;;14.87;14.27;;;30.30;1.00;;;;;;4990691;28;20446;-69
2022/05/31 08:29:14;;;;;;;14.90;14.30;;;28.70;1.00;;;;;;4991170;28;20185;-69
2022/05/31 08:31:40;;;;;;;15.10;14.50;;;28.80;1.00;;;;;;4990045;28;20439;-68
2022/05/31 08:34:07;;;;;;;15.70;14.80;;;28.90;1.00;;;;;;4991614;28;20211;-69
2022/05/31 08:36:33;;;;;;;14.07;13.57;;;28.60;1.00;;;;;;4991483;28;20806;-69
2022/05/31 08:38:59;;;;;;;14.83;14.23;;;28.80;1.00;;;;;;4991566;28;20485;-69
2022/05/31 08:41:30;;;;;;;15.90;15.10;;;27.60;1.00;;;;;;4991432;28;20511;-69
2022/05/31 08:44:12;;;;;;;16.07;15.47;;;27.30;1.00;;;;;;4991779;28;20447;-69
2022/05/31 08:46:59;;;;;;;15.53;14.73;;;27.40;1.00;;;;;;4991134;28;20821;-69
2022/05/31 08:51:52;;;;;;;14.93;14.33;;;27.40;1.00;;;;;;4990993;28;20467;-69
2022/05/31 08:52:25;;;;;;;15.70;15.00;;;27.40;1.00;;;;;;4991019;28;20435;-69
2022/05/31 08:57:48;;;;;;;14.80;14.20;;;26.60;1.00;;;;;;4992064;28;20486;-70
2022/05/31 09:00:17;;;;;;;15.30;14.50;;;26.20;1.00;;;;;;4991629;28;20507;-69
2022/05/31 09:02:49;;;;;;;14.23;13.63;;;25.40;1.00;;;;;;4990817;28;20424;-69
2022/05/31 09:05:40;;;;;;;14.10;13.60;;;24.30;1.00;;;;;;4991831;28;20518;-69
2022/05/31 09:08:16;;;;;;;15.30;14.70;;;24.40;1.00;;;;;;4988039;28;20437;-69
2022/05/31 09:11:02;;;;;;;15.00;14.30;;;24.40;1.00;;;;;;4994789;28;20435;-69
2022/05/31 09:13:43;;;;;;;14.77;14.17;;;23.20;1.00;;;;;;4994369;28;20814;-70
2022/05/31 09:16:28;;;;;;;15.60;14.57;;;23.30;1.00;;;;;;4994344;28;20859;-69
2022/05/31 09:18:59;;;;;;;14.47;13.87;;;23.60;1.00;;;;;;4988467;28;20506;-69
2022/05/31 09:21:43;;;;;;;14.87;14.27;;;23.70;1.00;;;;;;4993088;28;20420;-70
2022/05/31 09:24:12;;;;;;;14.60;14.00;;;23.30;1.00;;;;;;4995585;28;20538;-70
2022/05/31 09:26:59;;;;;;;14.27;13.57;;;23.30;1.00;;;;;;4987233;28;20435;-70
2022/05/31 09:29:53;;;;;;;14.33;13.77;;;23.10;1.00;;;;;;4994943;28;20431;-70
2022/05/31 09:32:57;;;;;;;15.00;14.20;;;23.20;1.00;;;;;;4995076;28;20427;-70
2022/05/31 09:36:00;;;;;;;14.40;13.77;;;23.50;1.00;;;;;;4990850;28;20796;-70
2022/05/31 09:38:53;;;;;;;16.07;14.60;;;23.50;1.00;;;;;;4991622;28;20455;-69
2022/05/31 09:41:34;;;;;;;18.80;17.13;;;23.90;1.00;;;;;;4993777;28;20440;-70
2022/05/31 09:44:08;;;;;;;14.03;13.43;;;24.10;1.00;;;;;;4984499;28;21105;-69
2022/05/31 09:46:51;;;;;;;14.07;13.37;;;24.50;1.00;;;;;;4991518;28;20423;-70
2022/05/31 09:49:36;;;;;;;14.37;13.77;;;25.00;1.00;;;;;;4984746;28;20420;-70
2022/05/31 09:52:03;;;;;;;14.50;13.90;;;25.50;1.00;;;;;;4987707;28;20881;-70
2022/05/31 09:57:24;;;;;;;14.77;14.10;;;25.50;1.00;;;;;;4987935;28;20427;-69
2022/05/31 09:59:51;;;;;;;15.10;14.50;;;25.20;1.00;;;;;;4991671;28;20424;-70
2022/05/31 10:02:36;;;;;;;14.80;14.17;;;23.90;1.00;;;;;;4989293;28;20495;-70
2022/05/31 10:05:09;;;;;;;14.30;13.80;;;23.50;1.00;;;;;;4987229;28;21007;-70
2022/05/31 10:07:37;;;;;;;15.20;14.50;;;24.00;1.00;;;;;;4995200;28;20432;-70
2022/05/31 10:10:08;;;;;;;14.77;13.97;;;24.10;1.00;;;;;;4995565;28;20830;-70
2022/05/31 10:12:34;;;;;;;14.67;14.10;;;24.40;1.00;;;;;;4994344;28;20432;-70
2022/05/31 10:15:03;;;;;;;14.87;14.27;;;24.40;1.00;;;;;;4994290;28;21000;-70
2022/05/31 10:17:41;;;;;;;14.40;13.67;;;24.80;1.00;;;;;;4993787;28;20428;-70
2022/05/31 10:20:22;;;;;;;13.90;13.37;;;24.90;1.00;;;;;;4993756;28;20431;-71
2022/05/31 10:23:20;;;;;;;14.07;13.47;;;25.20;1.00;;;;;;4994159;28;20424;-69
2022/05/31 10:25:54;;;;;;;14.00;13.40;;;25.20;1.00;;;;;;4992848;28;20486;-69
2022/05/31 10:28:29;;;;;;;15.03;14.33;;;25.00;1.00;;;;;;4994213;28;20426;-69
2022/05/31 10:31:42;;;;;;;14.57;13.87;;;24.60;1.00;;;;;;4992805;28;20506;-69
2022/05/31 10:34:37;;;;;;;15.43;14.63;;;24.90;1.00;;;;;;4988557;28;21032;-69
2022/05/31 10:37:07;;;;;;;13.40;12.80;;;24.60;1.00;;;;;;4992801;28;20499;-69
2022/05/31 10:39:39;;;;;;;13.60;13.10;;;24.40;1.00;;;;;;4994212;28;20424;-69
2022/05/31 10:42:11;;;;;;;14.10;13.50;;;23.80;1.00;;;;;;4992906;28;20420;-69
2022/05/31 10:44:51;;;;;;;14.07;13.57;;;24.20;1.00;;;;;;4993632;28;20470;-69
2022/05/31 10:47:19;;;;;;;14.20;13.40;;;24.50;1.00;;;;;;4987075;28;20428;-69
2022/05/31 10:49:46;;;;;;;13.40;12.90;;;24.50;1.00;;;;;;4993045;28;20423;-69
2022/05/31 10:52:35;;;;;;;13.70;13.20;;;24.60;1.00;;;;;;4993655;28;20724;-69
2022/05/31 10:55:04;;;;;;;14.70;14.03;;;24.90;1.00;;;;;;4992832;28;20562;-70
2022/05/31 10:57:54;;;;;;;14.20;13.60;;;25.20;1.00;;;;;;4993207;28;20615;-69
2022/05/31 11:00:37;;;;;;;14.27;13.30;;;25.40;1.00;;;;;;4986776;28;20423;-69
2022/05/31 11:03:48;;;;;;;14.20;13.60;;;25.00;1.00;;;;;;4984814;28;20444;-70
2022/05/31 11:06:20;;;;;;;14.90;14.13;;;25.00;1.00;;;;;;4985455;28;20462;-71
2022/05/31 11:12:06;;;;;;;14.00;13.23;;;25.20;1.00;;;;;;4983421;28;20435;-68
2022/05/31 11:14:59;;;;;;;14.03;13.43;;;25.30;1.00;;;;;;4987081;28;20495;-70
2022/05/31 11:17:39;;;;;;;14.60;14.00;;;25.50;1.00;;;;;;4985450;28;20459;-69
2022/05/31 11:20:14;;;;;;;13.80;13.30;;;24.80;1.00;;;;;;4993221;28;20411;-70
2022/05/31 11:22:48;;;;;;;14.07;13.47;;;24.70;1.00;;;;;;4992010;28;20407;-70
2022/05/31 11:25:52;;;;;;;14.53;13.97;;;24.40;1.00;;;;;;4993171;28;20549;-67
2022/05/31 11:28:46;;;;;;;14.97;13.17;;;24.50;1.00;;;;;;4988520;28;20773;-67
2022/05/31 11:31:30;;;;;;;14.33;13.77;;;24.80;1.00;;;;;;4992842;28;20424;-72
2022/05/31 11:34:13;;;;;;;13.97;13.37;;;24.90;1.00;;;;;;4993377;28;20460;-68
2022/05/31 11:37:04;;;;;;;14.13;13.33;;;24.90;1.00;;;;;;4974214;28;20424;-66
2022/05/31 11:40:07;;;;;;;15.13;13.73;;;24.70;1.00;;;;;;4972321;28;20452;-66
2022/05/31 11:42:44;;;;;;;14.73;13.80;;;24.40;1.00;;;;;;4973589;28;20412;-65
2022/05/31 11:45:21;;;;;;;13.80;13.30;;;24.10;1.00;;;;;;4973714;28;20499;-65
2022/05/31 11:48:13;;;;;;;13.50;13.00;;;23.90;1.00;;;;;;4984443;28;20419;-66
2022/05/31 11:51:17;;;;;;;13.37;12.87;;;23.80;1.00;;;;;;4990432;28;20485;-66
2022/05/31 11:54:08;;;;;;;13.63;13.03;;;23.80;1.00;;;;;;4992792;28;20506;-67
2022/05/31 11:56:45;;;;;;;13.07;12.57;;;23.90;1.00;;;;;;4992921;28;20438;-66
2022/05/31 11:59:25;;;;;;;14.40;13.60;;;23.90;1.00;;;;;;4991690;28;20592;-67
2022/05/31 12:02:03;;;;;;;14.47;13.90;;;24.00;1.00;;;;;;4992604;28;20410;-65
2022/05/31 12:04:44;;;;;;;12.97;12.37;;;24.20;1.00;;;;;;4989622;28;20462;-65
2022/05/31 12:07:18;;;;;;;14.00;13.50;;;24.50;1.00;;;;;;4973025;28;20413;-66
2022/05/31 12:09:58;;;;;;;13.43;12.83;;;24.70;1.00;;;;;;4973672;28;20788;-66
2022/05/31 12:12:33;;;;;;;13.63;13.13;;;24.90;1.00;;;;;;4974845;28;20467;-66
2022/05/31 12:15:14;;;;;;;13.63;13.03;;;25.10;1.00;;;;;;4980667;28;20467;-68
2022/05/31 12:17:51;;;;;;;12.93;12.47;;;25.30;1.00;;;;;;4983562;28;20416;-65
2022/05/31 12:20:42;;;;;;;13.43;12.83;;;25.50;1.00;;;;;;4982009;28;20408;-67
2022/05/31 12:23:19;;;;;;;13.47;12.80;;;25.70;1.00;;;;;;4978639;28;20524;-65
2022/05/31 12:25:52;;;;;;;13.33;12.80;;;25.90;1.00;;;;;;4973211;28;20419;-68
2022/05/31 12:28:26;;;;;;;14.07;13.07;;;25.90;1.00;;;;;;4973485;28;20830;-66
2022/05/31 12:31:10;;;;;;;12.40;11.60;;;25.90;1.00;;;;;;4974274;28;20423;-67
2022/05/31 12:33:43;;;;;;;12.77;12.27;;;26.10;1.00;;;;;;4972677;28;20460;-66
2022/05/31 12:36:17;;;;;;;15.70;15.00;;;26.30;1.00;;;;;;4973164;28;20850;-67
2022/05/31 12:38:52;;;;;;;16.30;15.13;;;26.40;1.00;;;;;;4973097;28;20504;-70
2022/05/31 12:41:39;;;;;;;14.10;13.30;;;26.70;1.00;;;;;;4974631;28;20420;-72
2022/05/31 12:44:14;;;;;;;17.17;14.63;;;26.90;1.00;;;;;;4976495;28;20440;-71
2022/05/31 12:46:46;;;;;;;15.27;14.37;;;26.70;1.00;;;;;;4976596;28;20424;-71
2022/05/31 12:49:29;;;;;;;14.77;14.00;;;26.90;1.00;;;;;;4976704;28;20420;-70
2022/05/31 12:54:56;;;;;;;13.93;13.40;;;27.10;1.00;;;;;;4976240;28;21158;-71
2022/05/31 13:00:35;;;;;;;14.93;14.13;;;26.60;1.00;;;;;;4976405;28;20411;-70
2022/05/31 13:03:25;;;;;;;14.07;13.37;;;26.90;1.00;;;;;;4976094;28;20408;-70
2022/05/31 13:06:00;;;;;;;14.77;14.17;;;26.90;1.00;;;;;;4976251;28;20429;-70
2022/05/31 13:08:59;;;;;;;15.30;14.60;;;27.00;1.00;;;;;;4976757;28;20503;-70
2022/05/31 13:19:48;;;;;;;14.20;13.70;;;26.90;1.00;;;;;;4976188;28;20459;-71
2022/05/31 13:22:17;;;;;;;14.93;14.33;;;27.00;1.00;;;;;;4975720;28;20412;-71
2022/05/31 13:24:51;;;;;;;14.80;14.10;;;26.90;1.00;;;;;;4976216;28;20977;-71
2022/05/31 13:27:27;;;;;;;15.47;14.87;;;26.20;1.00;;;;;;4976042;28;20467;-71
2022/05/31 13:30:20;;;;;;;14.90;14.40;;;26.00;1.00;;;;;;4975770;28;20881;-70
2022/05/31 13:32:46;;;;;;;21.30;16.00;;;25.90;1.00;;;;;;4976092;28;20909;-70
2022/05/31 13:35:20;;;;;;;14.93;14.33;;;26.00;1.00;;;;;;4975641;28;20486;-70
2022/05/31 13:38:05;;;;;;;15.53;14.83;;;26.00;1.00;;;;;;4975881;28;20173;-71
2022/05/31 13:40:35;;;;;;;15.37;14.77;;;25.60;1.00;;;;;;4975745;28;20411;-70
2022/05/31 13:43:04;;;;;;;14.97;14.37;;;25.90;1.00;;;;;;4974140;28;20468;-70
2022/05/31 13:45:33;;;;;;;16.10;15.10;;;26.00;1.00;;;;;;4975784;28;20977;-71